Time;durP1;ratioP1;P1;durP2;ratioP2;P2;SDS_P1;SDS_P2;PMS_P1;PMS_P2;Temp;Humidity;BMP_temperature;BMP_pressure;BME280_temperature;BME280_humidity;BME280_pressure;Samples;Min_cycle;Max_cycle;Signal;HPM_P1;HPM_P2
2021/06/11 00:04:37;;;;;;;5.87;4.60;;;19.30;99.90;;;;;;6718543;88;21143;-76
2021/06/11 00:14:38;;;;;;;8.63;4.55;;;19.20;99.90;;;;;;6724387;88;20365;-80
2021/06/11 00:24:38;;;;;;;6.18;4.97;;;19.10;99.90;;;;;;6718580;88;20189;-76
2021/06/11 00:34:39;;;;;;;8.00;4.97;;;19.10;99.90;;;;;;6717403;88;20689;-76
2021/06/11 00:44:40;;;;;;;8.50;5.30;;;18.90;99.90;;;;;;6716886;88;21119;-76
2021/06/11 00:54:40;;;;;;;7.53;5.15;;;18.70;99.90;;;;;;6717120;88;20251;-77
2021/06/11 01:04:41;;;;;;;7.30;5.00;;;18.50;99.90;;;;;;6717872;88;20270;-77
2021/06/11 01:14:42;;;;;;;6.65;5.10;;;18.40;99.90;;;;;;6737723;88;20169;-76
2021/06/11 01:24:59;;;;;;;7.93;4.97;;;18.10;99.90;;;;;;6739113;88;20234;-75
2021/06/11 01:35:03;;;;;;;7.18;4.62;;;18.00;99.90;;;;;;6738249;88;20165;-76
2021/06/11 01:45:08;;;;;;;10.00;5.13;;;18.10;99.90;;;;;;6739100;88;20197;-77
2021/06/11 01:55:10;;;;;;;6.43;4.40;;;18.00;99.90;;;;;;6737922;88;20307;-76
2021/06/11 02:05:11;;;;;;;10.48;4.60;;;18.20;99.90;;;;;;6738022;88;20206;-77
2021/06/11 02:15:13;;;;;;;7.22;4.20;;;18.20;99.90;;;;;;6737316;88;20192;-77
2021/06/11 02:25:16;;;;;;;7.22;4.03;;;18.10;99.90;;;;;;6735760;88;20210;-78
2021/06/11 02:35:23;;;;;;;7.90;4.55;;;17.90;99.90;;;;;;6738366;88;20251;-77
2021/06/11 02:45:28;;;;;;;8.60;4.30;;;17.70;99.90;;;;;;6736986;88;20169;-77
2021/06/11 02:55:30;;;;;;;6.82;4.40;;;17.60;99.90;;;;;;6737902;88;20196;-77
2021/06/11 03:05:32;;;;;;;7.45;4.75;;;17.60;99.90;;;;;;6737292;88;20677;-77
2021/06/11 03:15:35;;;;;;;8.73;5.30;;;17.60;99.90;;;;;;6737045;88;20189;-77
2021/06/11 03:25:44;;;;;;;16.17;6.70;;;17.70;99.90;;;;;;6737813;88;20188;-78
2021/06/11 03:35:54;;;;;;;8.75;4.87;;;17.80;99.90;;;;;;6736402;88;20288;-77
2021/06/11 03:45:57;;;;;;;7.10;4.93;;;17.60;99.90;;;;;;6736761;88;20235;-77
2021/06/11 03:56:06;;;;;;;7.68;4.90;;;17.40;99.90;;;;;;6738273;88;20200;-78
2021/06/11 04:06:18;;;;;;;9.07;5.30;;;17.30;99.90;;;;;;6736729;88;20211;-77
2021/06/11 04:16:25;;;;;;;7.47;5.10;;;17.30;99.90;;;;;;6736683;88;20247;-77
2021/06/11 04:26:28;;;;;;;13.65;6.22;;;17.50;99.90;;;;;;6737229;88;20201;-78
2021/06/11 04:36:28;;;;;;;9.38;6.70;;;17.50;99.90;;;;;;6737546;88;20253;-78
2021/06/11 04:46:29;;;;;;;9.80;6.13;;;17.40;99.90;;;;;;6737573;88;20387;-76
2021/06/11 04:56:30;;;;;;;9.18;5.80;;;17.60;99.90;;;;;;6736796;88;20517;-76
2021/06/11 05:06:30;;;;;;;9.73;5.73;;;17.80;99.90;;;;;;6733274;88;20193;-77
2021/06/11 05:16:31;;;;;;;7.70;5.30;;;17.90;99.90;;;;;;6735627;88;20516;-78
2021/06/11 05:26:32;;;;;;;14.85;7.35;;;18.00;99.90;;;;;;6728256;88;20189;-76
2021/06/11 05:36:32;;;;;;;11.65;8.15;;;18.10;99.90;;;;;;6736759;88;20213;-78
2021/06/11 05:46:34;;;;;;;15.57;9.73;;;18.40;99.90;;;;;;6744589;88;20238;-76
2021/06/11 05:56:34;;;;;;;18.50;9.68;;;18.70;99.90;;;;;;6736701;88;20212;-78
2021/06/11 06:06:35;;;;;;;14.23;9.73;;;19.10;99.90;;;;;;6751413;88;20199;-77
2021/06/11 06:16:36;;;;;;;17.37;10.43;;;20.10;99.90;;;;;;6735261;88;20211;-79
2021/06/11 06:26:37;;;;;;;17.27;10.43;;;21.20;99.90;;;;;;6723750;88;20226;-76
2021/06/11 06:36:37;;;;;;;16.30;8.88;;;21.90;99.90;;;;;;6721537;88;20725;-76
2021/06/11 06:46:38;;;;;;;13.50;7.53;;;22.70;99.90;;;;;;6737055;88;20173;-78
2021/06/11 06:56:39;;;;;;;16.62;9.70;;;23.20;99.90;;;;;;6730672;88;21075;-77
2021/06/11 07:06:39;;;;;;;16.17;10.23;;;24.10;99.90;;;;;;6731050;88;20197;-76
2021/06/11 07:16:40;;;;;;;11.48;8.00;;;24.70;99.90;;;;;;6729157;88;20509;-77
2021/06/11 07:26:40;;;;;;;16.25;10.70;;;25.30;99.90;;;;;;6731647;88;20331;-76
2021/06/11 07:36:41;;;;;;;16.83;11.38;;;25.50;99.90;;;;;;6731182;88;20204;-76
2021/06/11 07:46:41;;;;;;;17.07;10.50;;;25.70;99.90;;;;;;6728270;88;20208;-76
2021/06/11 07:56:42;;;;;;;17.33;10.30;;;26.50;99.90;;;;;;6732094;88;20185;-78
2021/06/11 08:06:44;;;;;;;17.10;10.30;;;27.10;99.90;;;;;;6733276;88;20173;-76
2021/06/11 08:16:45;;;;;;;17.80;10.17;;;27.40;99.90;;;;;;6735743;88;20235;-79
2021/06/11 08:26:45;;;;;;;18.75;10.95;;;27.80;99.90;;;;;;6735895;88;20624;-79
2021/06/11 08:36:46;;;;;;;16.93;10.17;;;28.20;99.90;;;;;;6735584;88;20862;-76
2021/06/11 08:46:48;;;;;;;17.83;9.68;;;28.70;98.80;;;;;;6734785;88;20311;-78
2021/06/11 08:56:50;;;;;;;20.40;10.40;;;29.40;97.40;;;;;;6737639;88;20363;-77
2021/06/11 09:06:50;;;;;;;17.85;9.50;;;30.10;96.20;;;;;;6729798;88;20388;-78
2021/06/11 09:16:52;;;;;;;15.60;8.80;;;30.50;93.40;;;;;;6732954;88;20181;-77
2021/06/11 09:27:21;;;;;;;16.77;8.63;;;31.10;90.80;;;;;;6733990;88;20187;-76
2021/06/11 09:37:25;;;;;;;16.12;8.50;;;31.00;91.30;;;;;;6732609;88;20690;-78
2021/06/11 09:47:51;;;;;;;14.93;8.45;;;31.20;90.10;;;;;;6732505;88;20220;-77
2021/06/11 09:58:04;;;;;;;13.07;7.35;;;32.10;84.60;;;;;;6726898;88;20174;-78
2021/06/11 10:08:05;;;;;;;16.33;8.38;;;32.60;81.00;;;;;;6732266;88;20260;-77
2021/06/11 10:18:07;;;;;;;12.23;7.35;;;32.30;80.70;;;;;;6729032;88;20278;-77
2021/06/11 10:28:10;;;;;;;8.98;5.95;;;32.90;79.90;;;;;;6723714;88;20607;-77
2021/06/11 10:38:33;;;;;;;10.93;6.50;;;32.60;74.80;;;;;;6715899;88;20249;-78
2021/06/11 10:49:08;;;;;;;14.77;6.87;;;33.00;73.90;;;;;;6726648;88;20288;-77
2021/06/11 10:59:42;;;;;;;13.23;7.37;;;33.60;73.40;;;;;;6718155;88;20198;-77
2021/06/11 11:09:55;;;;;;;12.05;6.90;;;33.70;71.20;;;;;;6724443;88;20749;-76
2021/06/11 11:20:06;;;;;;;10.45;7.25;;;33.90;71.60;;;;;;6736142;88;20225;-78
2021/06/11 11:30:08;;;;;;;11.12;7.32;;;33.60;73.00;;;;;;6740233;88;20362;-77
2021/06/11 11:40:09;;;;;;;9.25;5.80;;;33.10;72.60;;;;;;6739407;88;20223;-78
2021/06/11 11:50:11;;;;;;;7.82;5.55;;;34.40;72.60;;;;;;6722956;88;20220;-77
2021/06/11 12:00:16;;;;;;;8.90;5.30;;;34.80;69.70;;;;;;6724798;88;20205;-77
2021/06/11 12:10:16;;;;;;;8.65;4.60;;;34.70;71.30;;;;;;6718953;88;20197;-77
2021/06/11 12:20:17;;;;;;;10.38;3.87;;;34.70;68.30;;;;;;6733791;88;20214;-77
2021/06/11 12:30:18;;;;;;;5.22;3.78;;;35.40;69.00;;;;;;6733701;88;20183;-77
2021/06/11 12:40:19;;;;;;;7.77;3.60;;;36.50;67.50;;;;;;6733272;88;20236;-77
2021/06/11 12:50:19;;;;;;;7.12;3.12;;;35.70;67.20;;;;;;6732920;88;20675;-77
2021/06/11 13:00:20;;;;;;;5.55;3.12;;;34.60;66.90;;;;;;6728993;88;20307;-76
2021/06/11 13:10:22;;;;;;;7.72;3.12;;;33.90;68.80;;;;;;6732216;88;20210;-77
2021/06/11 13:20:22;;;;;;;6.87;3.90;;;34.80;66.60;;;;;;6732050;88;20233;-77
2021/06/11 13:30:23;;;;;;;;;;;35.60;65.70;;;;;;6731357;88;20729;-76
2021/06/11 13:40:23;;;;;;;4.28;3.10;;;35.60;65.70;;;;;;6731241;88;20192;-77
2021/06/11 13:50:27;;;;;;;4.60;3.00;;;35.50;65.90;;;;;;6731636;88;20276;-77
2021/06/11 14:00:30;;;;;;;5.37;3.65;;;34.80;67.10;;;;;;6732846;88;20209;-76
2021/06/11 14:10:31;;;;;;;5.45;3.22;;;34.20;66.40;;;;;;6732362;88;20317;-77
2021/06/11 14:20:33;;;;;;;8.95;3.03;;;33.90;66.90;;;;;;6732263;88;20196;-79
2021/06/11 14:30:33;;;;;;;8.70;3.72;;;34.00;67.00;;;;;;6733922;88;20188;-77
2021/06/11 14:40:34;;;;;;;6.30;3.22;;;33.10;69.10;;;;;;6732877;88;20203;-77
2021/06/11 14:50:35;;;;;;;;;;;32.90;69.70;;;;;;6733497;88;20316;-77
2021/06/11 15:00:38;;;;;;;7.18;3.72;;;33.40;68.40;;;;;;6733557;88;20521;-77
2021/06/11 15:10:40;;;;;;;6.07;3.70;;;32.50;69.80;;;;;;6734081;88;20188;-78
2021/06/11 15:20:40;;;;;;;7.78;3.37;;;32.30;70.50;;;;;;6722252;88;20186;-77
2021/06/11 15:30:42;;;;;;;5.80;3.17;;;32.60;70.80;;;;;;6736577;88;20215;-78
2021/06/11 15:40:43;;;;;;;4.62;2.78;;;33.40;68.90;;;;;;6734488;88;20647;-77
2021/06/11 15:50:43;;;;;;;6.00;2.60;;;33.00;69.20;;;;;;6733270;88;20311;-77
2021/06/11 16:00:44;;;;;;;3.87;2.20;;;32.80;68.40;;;;;;6718658;88;20230;-77
2021/06/11 16:10:45;;;;;;;3.90;2.13;;;32.50;67.50;;;;;;6720940;88;20196;-77
2021/06/11 16:20:45;;;;;;;4.47;2.10;;;32.10;66.90;;;;;;6717070;88;20584;-77
2021/06/11 16:30:46;;;;;;;4.87;2.35;;;31.50;67.50;;;;;;6735691;88;20775;-78
2021/06/11 16:40:47;;;;;;;5.30;2.58;;;30.90;68.50;;;;;;6733883;88;20208;-75
2021/06/11 16:50:48;;;;;;;4.87;2.40;;;30.50;69.20;;;;;;6733937;88;20185;-77
2021/06/11 17:00:50;;;;;;;6.78;2.55;;;30.10;70.00;;;;;;6736575;88;20226;-78
2021/06/11 17:10:50;;;;;;;5.77;2.40;;;30.10;70.20;;;;;;6741912;88;20219;-77
2021/06/11 17:20:51;;;;;;;4.93;2.00;;;30.80;69.10;;;;;;6735990;88;20307;-78
2021/06/11 17:30:54;;;;;;;4.25;2.08;;;30.70;68.90;;;;;;6745105;88;20200;-77
2021/06/11 17:41:01;;;;;;;3.60;1.98;;;31.70;65.90;;;;;;6733744;88;20691;-78
2021/06/11 17:51:05;;;;;;;5.85;1.90;;;30.60;67.50;;;;;;6733110;88;20734;-77
2021/06/11 18:01:07;;;;;;;7.00;1.75;;;30.50;68.90;;;;;;6734623;88;20254;-77
2021/06/11 18:11:07;;;;;;;;;;;30.00;70.00;;;;;;6736468;88;20272;-78
2021/06/11 18:21:26;;;;;;;3.78;1.50;;;30.30;70.20;;;;;;6737058;88;20507;-78
2021/06/11 18:31:27;;;;;;;3.75;1.40;;;31.70;68.30;;;;;;6736884;88;20234;-77
2021/06/11 18:41:40;;;;;;;2.40;1.50;;;30.50;69.60;;;;;;6737333;88;20656;-80
2021/06/11 18:51:41;;;;;;;;;;;28.60;73.40;;;;;;6737224;88;20203;-77
2021/06/11 19:01:41;;;;;;;5.27;1.53;;;27.40;76.50;;;;;;6733161;88;20056;-78
2021/06/11 19:11:42;;;;;;;4.50;1.60;;;27.00;77.80;;;;;;6738895;88;20260;-77
2021/06/11 19:22:01;;;;;;;2.35;1.55;;;26.70;79.80;;;;;;6719654;88;20696;-76
2021/06/11 19:32:03;;;;;;;4.10;1.80;;;26.10;82.90;;;;;;6719287;88;20645;-77
2021/06/11 19:42:21;;;;;;;4.40;1.70;;;25.80;85.90;;;;;;6728066;88;20206;-78
2021/06/11 19:52:22;;;;;;;4.03;2.00;;;25.30;90.60;;;;;;6734982;88;20768;-78
2021/06/11 20:02:28;;;;;;;2.97;1.80;;;25.00;93.30;;;;;;6736028;88;20188;-77
2021/06/11 20:12:31;;;;;;;2.97;2.00;;;24.60;95.80;;;;;;6735972;88;20225;-77
2021/06/11 20:22:31;;;;;;;3.47;1.90;;;24.40;97.20;;;;;;6737918;88;20705;-78
2021/06/11 20:32:32;;;;;;;4.35;2.25;;;24.20;98.70;;;;;;6740700;88;20302;-77
2021/06/11 20:42:34;;;;;;;3.53;1.70;;;24.00;99.70;;;;;;6731813;88;20238;-76
2021/06/11 20:52:34;;;;;;;4.95;1.48;;;23.70;99.90;;;;;;6731542;88;20214;-77
2021/06/11 21:02:35;;;;;;;3.83;1.40;;;23.60;99.90;;;;;;6732793;88;20201;-78
2021/06/11 21:12:38;;;;;;;2.25;1.37;;;23.50;99.90;;;;;;6728558;88;20617;-77
2021/06/11 21:22:39;;;;;;;2.40;1.30;;;23.60;99.90;;;;;;6731533;88;20173;-78
2021/06/11 21:32:40;;;;;;;5.55;1.58;;;23.40;99.90;;;;;;6728175;88;20214;-77
2021/06/11 21:42:41;;;;;;;5.30;1.20;;;23.40;99.90;;;;;;6727362;88;20205;-78
2021/06/11 21:52:41;;;;;;;3.92;1.27;;;23.00;99.90;;;;;;6727778;88;20226;-76
2021/06/11 22:02:42;;;;;;;5.20;1.40;;;22.70;99.90;;;;;;6720665;88;20640;-77
2021/06/11 22:12:43;;;;;;;3.62;1.37;;;22.70;99.90;;;;;;6718217;88;20214;-76
2021/06/11 22:22:44;;;;;;;2.10;1.20;;;22.60;99.90;;;;;;6716863;88;20231;-76
2021/06/11 22:32:45;;;;;;;3.33;1.60;;;22.50;99.90;;;;;;6714375;88;20176;-77
2021/06/11 22:42:45;;;;;;;4.57;2.05;;;22.30;99.90;;;;;;6722021;88;20196;-76
2021/06/11 22:52:46;;;;;;;4.95;2.20;;;22.10;99.90;;;;;;6724742;88;20216;-79
2021/06/11 23:02:47;;;;;;;4.93;2.53;;;22.00;99.90;;;;;;6719513;88;20224;-76
2021/06/11 23:12:48;;;;;;;5.90;2.80;;;21.80;99.90;;;;;;6719241;88;20730;-77
2021/06/11 23:22:48;;;;;;;6.57;2.78;;;21.60;99.90;;;;;;6718455;88;20542;-78
2021/06/11 23:32:49;;;;;;;5.75;3.12;;;21.50;99.90;;;;;;6719279;88;22556;-78
2021/06/11 23:42:52;;;;;;;7.30;4.12;;;21.40;99.90;;;;;;6735194;88;20196;-76
2021/06/11 23:52:52;;;;;;;8.32;4.00;;;21.40;99.90;;;;;;6732269;88;20212;-77
